Time;durP1;ratioP1;P1;durP2;ratioP2;P2;SDS_P1;SDS_P2;PMS_P1;PMS_P2;Temp;Humidity;BMP_temperature;BMP_pressure;BME280_temperature;BME280_humidity;BME280_pressure;Samples;Min_cycle;Max_cycle;Signal;HPM_P1;HPM_P2
2021/03/17 00:00:01;;;;;;;14.00;5.00;;;;;;;;;;5073827;28;20381;-76
2021/03/17 00:02:27;;;;;;;8.53;5.10;;;;;;;;;;5074085;28;20393;-75
2021/03/17 00:04:53;;;;;;;9.83;4.50;;;;;;;;;;5073520;28;20398;-75
2021/03/17 00:07:19;;;;;;;7.30;4.70;;;;;;;;;;5071736;28;20797;-76
2021/03/17 00:09:45;;;;;;;17.23;5.30;;;;;;;;;;5064612;28;20433;-75
2021/03/17 00:12:11;;;;;;;12.90;5.80;;;6.30;1.00;;;;;;5060339;28;20418;-76
2021/03/17 00:14:37;;;;;;;8.60;5.33;;;;;;;;;;5093287;28;20468;-76
2021/03/17 00:17:03;;;;;;;11.40;5.63;;;;;;;;;;5076238;28;20178;-76
2021/03/17 00:19:29;;;;;;;7.90;4.70;;;;;;;;;;5073338;28;20397;-76
2021/03/17 00:21:55;;;;;;;9.87;4.80;;;6.10;1.00;;;;;;5066802;28;20778;-76
2021/03/17 00:24:21;;;;;;;9.53;4.77;;;6.20;1.00;;;;;;5068821;28;20920;-76
2021/03/17 00:26:47;;;;;;;13.80;4.80;;;;;;;;;;5053372;28;20402;-76
2021/03/17 00:29:13;;;;;;;7.40;4.70;;;;;;;;;;5068701;28;20171;-76
2021/03/17 00:31:38;;;;;;;12.00;4.40;;;6.20;1.00;;;;;;5069940;28;20904;-75
2021/03/17 00:34:04;;;;;;;22.67;5.30;;;;;;;;;;5072923;28;20472;-76
2021/03/17 00:36:30;;;;;;;7.50;5.00;;;;;;;;;;5072007;28;20187;-76
2021/03/17 00:38:56;;;;;;;11.57;5.80;;;6.10;1.00;;;;;;5073066;28;20401;-76
2021/03/17 00:41:23;;;;;;;13.63;5.67;;;6.00;1.00;;;;;;5073112;28;20855;-76
2021/03/17 00:43:49;;;;;;;8.17;5.03;;;;;;;;;;5072929;28;20223;-75
2021/03/17 00:46:14;;;;;;;9.57;4.73;;;6.00;1.00;;;;;;5073391;28;20413;-76
2021/03/17 00:48:40;;;;;;;10.80;4.63;;;;;;;;;;5072913;28;20420;-76
2021/03/17 00:51:06;;;;;;;7.40;4.67;;;6.00;1.00;;;;;;5068148;28;20269;-76
2021/03/17 00:53:32;;;;;;;13.23;5.13;;;;;;;;;;5072153;28;21004;-77
2021/03/17 00:55:58;;;;;;;10.87;5.20;;;;;;;;;;5072696;28;20217;-77
2021/03/17 00:58:26;;;;;;;10.47;4.67;;;;;;;;;;5073171;28;20385;-77
2021/03/17 01:00:52;;;;;;;7.17;4.87;;;;;;;;;;5073076;28;20393;-77
2021/03/17 01:03:17;;;;;;;12.67;6.30;;;5.90;1.00;;;;;;5073133;28;20390;-75
2021/03/17 01:05:43;;;;;;;9.90;5.50;;;;;;;;;;5072678;28;20422;-76
2021/03/17 01:08:09;;;;;;;8.33;4.50;;;5.90;1.00;;;;;;5072079;28;20331;-76
2021/03/17 01:10:35;;;;;;;7.83;4.73;;;;;;;;;;5072053;28;20428;-76
2021/03/17 01:13:01;;;;;;;11.93;5.77;;;5.90;1.00;;;;;;5072660;28;20993;-76
2021/03/17 01:15:27;;;;;;;11.10;5.53;;;5.90;1.00;;;;;;5072727;28;20397;-76
2021/03/17 01:17:54;;;;;;;10.30;5.57;;;;;;;;;;5072866;28;20444;-76
2021/03/17 01:20:23;;;;;;;12.07;4.87;;;5.80;1.00;;;;;;5072474;28;20456;-76
2021/03/17 01:22:48;;;;;;;13.93;6.68;;;5.80;1.00;;;;;;5072745;28;20399;-76
2021/03/17 01:25:19;;;;;;;10.20;4.83;;;5.80;1.00;;;;;;5056339;28;20270;-76
2021/03/17 01:27:45;;;;;;;7.90;4.60;;;5.80;1.00;;;;;;5051323;28;20185;-76
2021/03/17 01:30:12;;;;;;;9.77;4.90;;;5.80;1.00;;;;;;5052976;28;20490;-76
2021/03/17 01:32:38;;;;;;;10.20;4.67;;;;;;;;;;5060595;28;20179;-76
2021/03/17 01:35:13;;;;;;;12.43;5.43;;;5.90;1.00;;;;;;5072667;28;20436;-76
2021/03/17 01:37:39;;;;;;;8.73;4.97;;;;;;;;;;5086609;28;20412;-76
2021/03/17 01:40:06;;;;;;;16.13;6.40;;;5.80;1.00;;;;;;5075221;28;20418;-76
2021/03/17 01:42:32;;;;;;;12.23;5.17;;;5.80;1.00;;;;;;5071125;28;20425;-76
2021/03/17 01:44:58;;;;;;;9.30;4.97;;;5.80;1.00;;;;;;5072439;28;20425;-76
2021/03/17 01:47:24;;;;;;;14.47;6.17;;;5.80;1.00;;;;;;5072864;28;20412;-76
2021/03/17 01:49:50;;;;;;;15.77;5.97;;;;;;;;;;5072440;28;20225;-76
2021/03/17 01:52:16;;;;;;;24.33;6.23;;;;;;;;;;5072434;28;20409;-76
2021/03/17 01:54:42;;;;;;;14.00;5.90;;;;;;;;;;5057103;28;20947;-76
2021/03/17 01:57:11;;;;;;;11.93;5.90;;;5.90;1.00;;;;;;5052587;28;20399;-76
2021/03/17 01:59:37;;;;;;;12.70;5.87;;;;;;;;;;5052238;28;20873;-77
2021/03/17 02:02:04;;;;;;;12.37;5.70;;;5.90;1.00;;;;;;5052622;28;20393;-76
2021/03/17 02:04:30;;;;;;;12.63;5.80;;;;;;;;;;5052308;28;20849;-76
2021/03/17 02:06:56;;;;;;;10.50;5.50;;;;;;;;;;5052090;28;20391;-76
2021/03/17 02:09:22;;;;;;;12.60;5.53;;;;;;;;;;5066225;28;20425;-76
2021/03/17 02:11:57;;;;;;;9.53;5.10;;;5.90;1.00;;;;;;5052176;28;20756;-76
2021/03/17 02:14:44;;;;;;;11.93;5.57;;;5.90;1.00;;;;;;5051991;28;20449;-76
2021/03/17 02:17:16;;;;;;;12.27;5.97;;;5.90;1.00;;;;;;5068210;28;20444;-76
2021/03/17 02:20:19;;;;;;;11.43;5.90;;;6.00;1.00;;;;;;5072375;28;20486;-76
2021/03/17 02:22:54;;;;;;;9.70;5.53;;;5.80;1.00;;;;;;5071203;28;20185;-76
2021/03/17 02:25:34;;;;;;;14.57;5.22;;;5.90;1.00;;;;;;5055363;28;20389;-76
2021/03/17 02:28:23;;;;;;;8.90;5.13;;;5.90;1.00;;;;;;5055766;28;20175;-76
2021/03/17 02:31:23;;;;;;;13.43;6.20;;;5.80;1.00;;;;;;5055360;28;20779;-76
2021/03/17 02:34:08;;;;;;;9.10;5.07;;;5.80;1.00;;;;;;5073251;28;20483;-75
2021/03/17 02:36:46;;;;;;;15.73;5.80;;;5.80;1.00;;;;;;5070205;28;20830;-76
2021/03/17 02:39:12;;;;;;;11.93;5.88;;;;;;;;;;5056265;28;20426;-76
2021/03/17 02:41:45;;;;;;;16.00;7.40;;;5.60;1.00;;;;;;5055345;28;20664;-75
2021/03/17 02:44:16;;;;;;;21.00;8.30;;;5.60;1.00;;;;;;5055219;28;20405;-76
2021/03/17 02:46:42;;;;;;;15.70;6.30;;;;;;;;;;5055156;28;20497;-76
2021/03/17 02:49:31;;;;;;;19.57;7.13;;;5.60;1.00;;;;;;5055447;28;20936;-76
2021/03/17 02:52:00;;;;;;;12.40;6.20;;;5.50;1.00;;;;;;5069488;28;20430;-76
2021/03/17 02:54:27;;;;;;;18.15;5.55;;;5.50;1.00;;;;;;5055043;28;20940;-76
2021/03/17 02:57:05;;;;;;;12.23;5.73;;;5.50;1.00;;;;;;5054967;28;20631;-76
2021/03/17 02:59:31;;;;;;;11.70;6.60;;;;;;;;;;5054900;28;20396;-76
2021/03/17 03:02:00;;;;;;;14.03;6.30;;;5.40;1.00;;;;;;5054823;28;20160;-76
2021/03/17 03:04:27;;;;;;;11.93;5.65;;;5.40;1.00;;;;;;5055300;28;20496;-76
2021/03/17 03:06:55;;;;;;;14.37;7.27;;;5.40;1.00;;;;;;5054610;28;20171;-76
2021/03/17 03:09:24;;;;;;;14.27;6.78;;;5.40;1.00;;;;;;5054545;28;20987;-76
2021/03/17 03:11:52;;;;;;;13.20;6.30;;;5.50;1.00;;;;;;5054691;28;20172;-77
2021/03/17 03:14:21;;;;;;;14.77;6.70;;;5.50;1.00;;;;;;5054532;28;20801;-77
2021/03/17 03:16:49;;;;;;;16.30;6.50;;;5.40;1.00;;;;;;5053478;28;20171;-77
2021/03/17 03:19:18;;;;;;;16.63;6.93;;;5.40;1.00;;;;;;5055581;28;20760;-76
2021/03/17 03:21:44;;;;;;;18.33;6.67;;;;;;;;;;5073332;28;20940;-76
2021/03/17 03:24:12;;;;;;;11.70;5.88;;;5.40;1.00;;;;;;5074537;28;20755;-76
2021/03/17 03:26:38;;;;;;;15.45;6.30;;;;;;;;;;5073824;28;20170;-76
2021/03/17 03:29:05;;;;;;;13.93;5.70;;;5.30;1.00;;;;;;5073131;28;20211;-76
2021/03/17 03:31:31;;;;;;;12.55;6.10;;;5.30;1.00;;;;;;5073685;28;20163;-76
2021/03/17 03:33:57;;;;;;;15.80;7.20;;;;;;;;;;5073275;28;20195;-75
2021/03/17 03:36:26;;;;;;;13.90;6.65;;;5.20;1.00;;;;;;5070849;28;20223;-75
2021/03/17 03:38:52;;;;;;;13.93;6.75;;;;;;;;;;5067869;28;20179;-76
2021/03/17 03:41:18;;;;;;;17.30;6.75;;;;;;;;;;5078670;28;20178;-76
2021/03/17 03:43:44;;;;;;;16.45;7.43;;;;;;;;;;5090571;28;20190;-76
2021/03/17 03:46:10;;;;;;;21.52;7.90;;;;;;;;;;5074052;28;20258;-76
2021/03/17 03:48:37;;;;;;;13.30;6.30;;;;;;;;;;5074526;28;20228;-76
2021/03/17 03:51:04;;;;;;;17.87;6.90;;;5.10;1.00;;;;;;5072832;28;20470;-77
2021/03/17 03:54:14;;;;;;;17.40;5.90;;;5.10;1.00;;;;;;5074068;28;20547;-77
2021/03/17 03:57:04;;;;;;;18.17;7.30;;;5.00;1.00;;;;;;5051390;28;20650;-77
2021/03/17 03:59:35;;;;;;;21.40;7.30;;;5.00;1.00;;;;;;5040537;28;20423;-77
2021/03/17 04:02:02;;;;;;;16.40;7.50;;;4.90;1.00;;;;;;5031727;28;20235;-77
2021/03/17 04:04:31;;;;;;;18.77;7.60;;;4.90;1.00;;;;;;5048541;28;20351;-75
2021/03/17 04:07:01;;;;;;;15.38;7.00;;;4.90;1.00;;;;;;5031476;28;20181;-76
2021/03/17 04:09:32;;;;;;;22.17;7.68;;;4.90;1.00;;;;;;5031590;28;20168;-76
2021/03/17 04:12:00;;;;;;;15.02;6.70;;;4.80;1.00;;;;;;5031513;28;20164;-76
2021/03/17 04:14:29;;;;;;;14.45;6.13;;;4.80;1.00;;;;;;5049617;28;20583;-76
2021/03/17 04:17:04;;;;;;;21.90;7.05;;;4.80;1.00;;;;;;5051297;28;20255;-75
2021/03/17 04:19:33;;;;;;;19.55;6.18;;;4.90;1.00;;;;;;5048664;28;20658;-75
2021/03/17 04:21:59;;;;;;;12.77;6.10;;;;;;;;;;5031075;28;20187;-76
2021/03/17 04:24:27;;;;;;;18.05;7.85;;;4.80;1.00;;;;;;5031327;28;20196;-76
2021/03/17 04:26:55;;;;;;;22.13;7.18;;;4.80;1.00;;;;;;5030781;28;20188;-76
2021/03/17 04:29:22;;;;;;;17.27;7.70;;;4.80;1.00;;;;;;5045069;28;20180;-76
2021/03/17 04:31:54;;;;;;;15.10;6.93;;;4.80;1.00;;;;;;5050987;28;20267;-76
2021/03/17 04:34:20;;;;;;;12.45;5.90;;;;;;;;;;5059453;28;20672;-77
2021/03/17 04:36:48;;;;;;;11.77;5.78;;;4.80;1.00;;;;;;5071972;28;20206;-77
2021/03/17 04:39:16;;;;;;;19.13;7.03;;;4.80;1.00;;;;;;5073066;28;20701;-76
2021/03/17 04:41:43;;;;;;;11.77;5.70;;;4.80;1.00;;;;;;5072238;28;20262;-77
2021/03/17 04:44:09;;;;;;;16.80;7.63;;;;;;;;;;5057429;28;20638;-77
2021/03/17 04:46:35;;;;;;;21.67;7.95;;;4.80;1.00;;;;;;5053273;28;20168;-77
2021/03/17 04:49:02;;;;;;;19.73;7.03;;;4.80;1.00;;;;;;5053517;28;20297;-77
2021/03/17 04:51:28;;;;;;;14.82;7.13;;;;;;;;;;5053023;28;20166;-77
2021/03/17 04:53:54;;;;;;;15.60;7.20;;;;;;;;;;5052941;28;20279;-77
2021/03/17 04:56:20;;;;;;;19.50;8.10;;;4.80;1.00;;;;;;5052818;28;20466;-77
2021/03/17 04:58:48;;;;;;;15.17;6.63;;;4.80;1.00;;;;;;5082339;28;20851;-77
2021/03/17 05:01:15;;;;;;;12.13;6.72;;;;;;;;;;5072865;28;20427;-77
2021/03/17 05:03:41;;;;;;;12.00;5.82;;;4.90;1.00;;;;;;5073166;28;20259;-76
2021/03/17 05:06:10;;;;;;;14.75;6.38;;;4.90;1.00;;;;;;5072889;28;20241;-77
2021/03/17 05:08:40;;;;;;;19.67;7.82;;;4.90;1.00;;;;;;5073011;28;20239;-77
2021/03/17 05:11:06;;;;;;;14.15;6.20;;;4.80;1.00;;;;;;5072931;28;20250;-77
2021/03/17 05:13:35;;;;;;;17.03;6.40;;;4.80;1.00;;;;;;5059301;28;20599;-77
2021/03/17 05:16:02;;;;;;;18.85;6.53;;;4.80;1.00;;;;;;5052811;28;20156;-77
2021/03/17 05:18:29;;;;;;;12.32;6.15;;;4.80;1.00;;;;;;5053277;28;20160;-75
2021/03/17 05:20:55;;;;;;;15.50;6.85;;;;;;;;;;5054263;28;20210;-77
2021/03/17 05:23:21;;;;;;;17.60;6.50;;;;;;;;;;5053006;28;20602;-77
2021/03/17 05:25:48;;;;;;;17.50;7.30;;;;;;;;;;5052476;28;20211;-77
2021/03/17 05:28:15;;;;;;;24.23;8.00;;;4.50;1.00;;;;;;5068303;28;20266;-76
2021/03/17 05:30:47;;;;;;;23.30;6.55;;;4.40;1.00;;;;;;5051494;28;20217;-77
2021/03/17 05:33:15;;;;;;;20.98;7.05;;;4.50;1.00;;;;;;5054117;28;20191;-77
2021/03/17 05:35:41;;;;;;;12.80;6.47;;;4.50;1.00;;;;;;5065468;28;20187;-77
2021/03/17 05:38:07;;;;;;;16.37;6.60;;;;;;;;;;5070586;28;20197;-77
2021/03/17 05:40:34;;;;;;;12.80;6.32;;;4.50;1.00;;;;;;5072504;28;20261;-77
2021/03/17 05:43:02;;;;;;;15.95;7.43;;;4.50;1.00;;;;;;5072576;28;20273;-77
2021/03/17 05:45:28;;;;;;;17.33;7.10;;;;;;;;;;5072681;28;20162;-77
2021/03/17 05:47:54;;;;;;;17.60;6.55;;;;;;;;;;5088108;28;20171;-77
2021/03/17 05:50:22;;;;;;;21.45;8.00;;;4.40;1.00;;;;;;5057291;28;20172;-75
2021/03/17 05:52:48;;;;;;;20.85;7.22;;;;;;;;;;5052169;28;20165;-76
2021/03/17 05:55:15;;;;;;;13.52;6.45;;;4.50;1.00;;;;;;5054154;28;20623;-80
2021/03/17 05:57:42;;;;;;;13.27;5.70;;;4.50;1.00;;;;;;5056128;28;20179;-80
2021/03/17 06:00:14;;;;;;;14.80;6.25;;;4.60;1.00;;;;;;5056628;28;20160;-79
2021/03/17 06:02:40;;;;;;;17.00;6.60;;;;;;;;;;5056290;28;20160;-79
2021/03/17 06:05:08;;;;;;;13.95;6.88;;;4.70;1.00;;;;;;5070746;28;20187;-80
2021/03/17 06:07:52;;;;;;;15.55;6.05;;;4.70;1.00;;;;;;5074531;28;20171;-80
2021/03/17 06:10:19;;;;;;;17.00;7.18;;;4.70;1.00;;;;;;5076134;28;20167;-80
2021/03/17 06:13:02;;;;;;;16.05;6.00;;;4.80;1.00;;;;;;5075849;28;20683;-80
2021/03/17 06:15:28;;;;;;;13.27;6.20;;;4.80;1.00;;;;;;5074663;28;20600;-81
2021/03/17 06:18:25;;;;;;;14.95;6.82;;;4.80;1.00;;;;;;5075901;28;20160;-75
2021/03/17 06:20:51;;;;;;;21.35;7.15;;;4.90;1.00;;;;;;5027741;28;20215;-77
2021/03/17 06:23:17;;;;;;;22.70;7.00;;;;;;;;;;5033426;28;20212;-77
2021/03/17 06:25:44;;;;;;;14.88;6.03;;;;;;;;;;5032264;28;20477;-77
2021/03/17 06:28:11;;;;;;;24.15;7.60;;;5.10;1.00;;;;;;5033188;28;20184;-77
2021/03/17 06:30:37;;;;;;;12.45;6.25;;;;;;;;;;5033340;28;20689;-78
2021/03/17 06:33:04;;;;;;;22.27;7.10;;;5.20;1.00;;;;;;5029558;28;20223;-77
2021/03/17 06:35:30;;;;;;;17.40;6.05;;;;;;;;;;5028375;28;20203;-77
2021/03/17 06:37:56;;;;;;;23.17;7.25;;;;;;;;;;5029264;28;20288;-78
2021/03/17 06:40:29;;;;;;;12.25;5.93;;;5.30;1.00;;;;;;5041939;28;20722;-78
2021/03/17 06:43:06;;;;;;;13.68;6.28;;;5.30;1.00;;;;;;5032816;28;20254;-78
2021/03/17 06:45:38;;;;;;;14.13;6.80;;;5.40;1.00;;;;;;5033396;28;20590;-77
2021/03/17 06:48:24;;;;;;;13.43;6.35;;;5.40;1.00;;;;;;5033111;28;20157;-77
2021/03/17 06:51:13;;;;;;;12.25;6.50;;;5.50;1.00;;;;;;5033190;28;20188;-75
2021/03/17 06:53:44;;;;;;;16.98;7.00;;;5.50;1.00;;;;;;5033059;28;20271;-76
2021/03/17 06:56:34;;;;;;;18.90;6.97;;;5.50;1.00;;;;;;5032683;28;20264;-78
2021/03/17 06:59:01;;;;;;;14.57;6.50;;;5.50;1.00;;;;;;5067689;28;20180;-75
2021/03/17 07:01:37;;;;;;;16.40;7.10;;;5.60;1.00;;;;;;5055293;28;20839;-76
2021/03/17 07:04:21;;;;;;;14.63;6.63;;;5.70;1.00;;;;;;5059497;28;20423;-76
2021/03/17 07:06:58;;;;;;;22.45;6.05;;;5.80;1.00;;;;;;5073888;28;20713;-77
2021/03/17 07:09:26;;;;;;;21.40;8.47;;;5.80;1.00;;;;;;5074300;28;20179;-77
2021/03/17 07:12:10;;;;;;;20.47;8.20;;;5.90;1.00;;;;;;5069925;28;20504;-77
2021/03/17 07:14:41;;;;;;;17.03;6.73;;;6.10;1.00;;;;;;5069197;28;20795;-77
2021/03/17 07:17:26;;;;;;;19.87;6.80;;;6.30;1.00;;;;;;5074992;28;20377;-77
2021/03/17 07:19:52;;;;;;;13.53;6.17;;;;;;;;;;5073842;28;20477;-75
2021/03/17 07:22:19;;;;;;;17.57;6.73;;;;;;;;;;5074092;28;20484;-76
2021/03/17 07:24:55;;;;;;;19.27;7.40;;;6.50;1.00;;;;;;5086421;28;20401;-76
2021/03/17 07:27:25;;;;;;;15.97;6.63;;;6.60;1.00;;;;;;5094459;28;20734;-76
2021/03/17 07:30:14;;;;;;;13.67;6.83;;;6.60;1.00;;;;;;5087854;28;20413;-76
2021/03/17 07:33:07;;;;;;;16.80;6.53;;;6.70;1.00;;;;;;5079393;28;20934;-76
2021/03/17 07:35:36;;;;;;;13.83;6.97;;;6.70;1.00;;;;;;5072421;28;20774;-77
2021/03/17 07:38:11;;;;;;;10.73;5.80;;;6.80;1.00;;;;;;5066168;28;20524;-77
2021/03/17 07:40:45;;;;;;;14.37;6.50;;;6.90;1.00;;;;;;5070223;28;20483;-77
2021/03/17 07:43:12;;;;;;;13.13;6.20;;;7.00;1.00;;;;;;5072670;28;20494;-78
2021/03/17 07:45:38;;;;;;;16.20;7.60;;;;;;;;;;5074271;28;20408;-77
2021/03/17 07:48:09;;;;;;;20.30;7.23;;;7.10;1.00;;;;;;5073731;28;20425;-78
2021/03/17 07:50:37;;;;;;;14.80;7.03;;;7.20;1.00;;;;;;5072718;28;20393;-75
2021/03/17 07:53:07;;;;;;;21.00;7.57;;;7.30;1.00;;;;;;5068323;28;20409;-76
2021/03/17 07:55:34;;;;;;;15.10;6.70;;;7.50;1.00;;;;;;5073849;28;20488;-78
2021/03/17 07:58:01;;;;;;;16.57;7.00;;;7.60;1.00;;;;;;5074027;28;20386;-78
2021/03/17 08:00:27;;;;;;;14.43;7.20;;;7.70;1.00;;;;;;5073800;28;20476;-78
2021/03/17 08:02:55;;;;;;;18.30;7.97;;;7.90;1.00;;;;;;5073389;28;20869;-78
2021/03/17 08:05:24;;;;;;;19.00;7.53;;;7.90;1.00;;;;;;5069344;28;20411;-75
2021/03/17 08:07:50;;;;;;;16.10;7.37;;;8.00;1.00;;;;;;5063945;28;20413;-76
2021/03/17 08:10:17;;;;;;;19.00;7.33;;;8.00;1.00;;;;;;5074172;28;20389;-75
2021/03/17 08:12:45;;;;;;;11.97;6.60;;;8.00;1.00;;;;;;5074098;28;20393;-75
2021/03/17 08:15:15;;;;;;;17.97;7.47;;;8.10;1.00;;;;;;5059323;28;20446;-76
2021/03/17 08:17:43;;;;;;;11.43;6.17;;;;;;;;;;5072294;28;20418;-75
2021/03/17 08:20:17;;;;;;;11.23;5.63;;;8.10;1.00;;;;;;5071196;28;20810;-75
2021/03/17 08:22:43;;;;;;;9.80;5.30;;;;;;;;;;5073426;28;20381;-76
2021/03/17 08:25:10;;;;;;;12.70;5.77;;;7.90;1.00;;;;;;5072817;28;20418;-75
2021/03/17 08:27:36;;;;;;;14.10;6.43;;;;;;;;;;5073134;28;20401;-76
2021/03/17 08:30:02;;;;;;;10.53;4.90;;;;;;;;;;5073630;28;20390;-75
2021/03/17 08:32:55;;;;;;;12.60;4.90;;;7.70;1.00;;;;;;5071005;28;20919;-76
2021/03/17 08:35:21;;;;;;;6.83;3.83;;;7.50;1.00;;;;;;5071419;28;20429;-75
2021/03/17 08:37:55;;;;;;;9.97;5.00;;;7.50;1.00;;;;;;5061206;28;20428;-76
2021/03/17 08:40:29;;;;;;;7.70;4.20;;;7.50;1.00;;;;;;5068238;28;20432;-75
2021/03/17 08:42:58;;;;;;;8.20;4.33;;;7.50;1.00;;;;;;5072639;28;20424;-75
2021/03/17 08:45:24;;;;;;;6.83;4.00;;;7.40;1.00;;;;;;5056625;28;20759;-76
2021/03/17 08:47:50;;;;;;;6.87;4.43;;;7.30;1.00;;;;;;5052930;28;20379;-76
2021/03/17 08:50:26;;;;;;;8.13;3.90;;;7.30;1.00;;;;;;5052626;28;20159;-76
2021/03/17 08:52:54;;;;;;;6.67;3.67;;;7.30;1.00;;;;;;5052733;28;20456;-75
2021/03/17 08:55:36;;;;;;;10.17;4.37;;;7.50;1.00;;;;;;5052766;28;20430;-76
2021/03/17 08:58:07;;;;;;;9.43;4.17;;;7.70;1.00;;;;;;5052933;28;20386;-76
2021/03/17 09:00:48;;;;;;;7.30;3.53;;;7.80;1.00;;;;;;5065559;28;20405;-76
2021/03/17 09:03:32;;;;;;;10.40;6.13;;;7.90;1.00;;;;;;5072711;28;20393;-75
2021/03/17 09:06:09;;;;;;;14.17;5.67;;;8.00;1.00;;;;;;5073462;28;20764;-77
2021/03/17 09:09:06;;;;;;;13.10;6.90;;;7.90;1.00;;;;;;5064102;28;20460;-78
2021/03/17 09:11:32;;;;;;;15.17;6.00;;;;;;;;;;5058926;28;20418;-78
2021/03/17 09:14:07;;;;;;;17.40;7.33;;;8.00;1.00;;;;;;5082553;28;20537;-77
2021/03/17 09:16:56;;;;;;;16.17;6.90;;;8.10;1.00;;;;;;5092950;28;20399;-77
2021/03/17 09:19:22;;;;;;;15.23;7.20;;;;;;;;;;5074029;28;20564;-78
2021/03/17 09:21:48;;;;;;;13.97;7.40;;;;;;;;;;5071529;28;20485;-75
2021/03/17 09:24:31;;;;;;;11.30;5.20;;;8.10;1.00;;;;;;5066886;28;20442;-75
2021/03/17 09:27:05;;;;;;;19.07;8.30;;;8.20;1.00;;;;;;5052364;28;20617;-76
2021/03/17 09:29:31;;;;;;;14.13;7.40;;;;;;;;;;5060735;28;20401;-76
2021/03/17 09:31:57;;;;;;;15.60;7.13;;;;;;;;;;5074097;28;20401;-75
2021/03/17 09:34:35;;;;;;;14.93;7.03;;;7.60;1.00;;;;;;5076440;28;20457;-76
2021/03/17 09:37:05;;;;;;;14.30;6.37;;;7.30;1.00;;;;;;5075665;28;20447;-75
2021/03/17 09:39:31;;;;;;;18.80;8.13;;;7.20;1.00;;;;;;5070531;28;20478;-75
2021/03/17 09:41:57;;;;;;;14.53;6.53;;;;;;;;;;5075042;28;20417;-75
2021/03/17 09:44:23;;;;;;;12.13;6.00;;;6.80;1.00;;;;;;5076471;28;20390;-76
2021/03/17 09:46:53;;;;;;;11.73;4.30;;;6.50;1.00;;;;;;5073222;28;20749;-75
2021/03/17 09:49:21;;;;;;;6.57;3.93;;;6.50;1.00;;;;;;5055112;28;20414;-76
2021/03/17 09:51:54;;;;;;;2.80;2.10;;;6.30;1.00;;;;;;5056474;28;21051;-75
2021/03/17 09:54:22;;;;;;;5.13;2.93;;;6.30;1.00;;;;;;5061750;28;20549;-75
2021/03/17 09:56:50;;;;;;;3.10;1.93;;;6.50;1.00;;;;;;5076164;28;20405;-76
2021/03/17 09:59:16;;;;;;;2.90;1.80;;;;;;;;;;5074657;28;20417;-76
2021/03/17 10:01:49;;;;;;;3.13;2.30;;;6.80;1.00;;;;;;5076484;28;20752;-76
2021/03/17 10:04:22;;;;;;;2.40;2.00;;;7.10;1.00;;;;;;5076069;28;20394;-76
2021/03/17 10:06:48;;;;;;;4.20;2.07;;;;;;;;;;5076416;28;20423;-77
2021/03/17 10:09:15;;;;;;;8.93;2.50;;;;;;;;;;5069059;28;20402;-77
2021/03/17 10:11:41;;;;;;;6.10;2.57;;;;;;;;;;5056105;28;20394;-78
2021/03/17 10:14:15;;;;;;;6.57;2.23;;;7.20;1.00;;;;;;5079715;28;20459;-77
2021/03/17 10:16:42;;;;;;;3.00;2.23;;;7.30;1.00;;;;;;5087534;28;20407;-77
2021/03/17 10:19:12;;;;;;;3.13;2.03;;;7.50;1.00;;;;;;5096267;28;20432;-77
2021/03/17 10:21:39;;;;;;;5.10;3.00;;;;;;;;;;5056116;28;20390;-76
2021/03/17 10:24:05;;;;;;;5.90;2.90;;;8.20;1.00;;;;;;5056043;28;20498;-76
2021/03/17 10:26:33;;;;;;;10.67;4.97;;;8.60;1.00;;;;;;5059387;28;20796;-75
2021/03/17 10:29:00;;;;;;;7.50;4.37;;;8.70;1.00;;;;;;5074350;28;20759;-76
2021/03/17 10:31:33;;;;;;;11.50;5.50;;;9.00;1.00;;;;;;5075551;28;20409;-75
2021/03/17 10:33:59;;;;;;;9.93;4.90;;;;;;;;;;5071127;28;20939;-76
2021/03/17 10:36:37;;;;;;;6.87;4.47;;;8.30;1.00;;;;;;5075724;28;20471;-75
2021/03/17 10:39:03;;;;;;;7.10;3.70;;;;;;;;;;5075480;28;20404;-76
2021/03/17 10:41:41;;;;;;;6.53;3.40;;;8.20;1.00;;;;;;5070437;28;20449;-75
2021/03/17 10:44:18;;;;;;;3.90;2.87;;;7.80;1.00;;;;;;5075224;28;20923;-75
2021/03/17 10:46:55;;;;;;;4.10;2.93;;;7.70;1.00;;;;;;5075126;28;20389;-75
2021/03/17 10:49:21;;;;;;;7.57;3.00;;;;;;;;;;5060044;28;20790;-77
2021/03/17 10:51:55;;;;;;;3.63;2.70;;;7.20;1.00;;;;;;5068322;28;20880;-77
2021/03/17 10:54:31;;;;;;;3.43;2.37;;;6.90;1.00;;;;;;5074961;28;20948;-77
2021/03/17 10:56:59;;;;;;;4.73;1.97;;;6.90;1.00;;;;;;5074281;28;20419;-81
2021/03/17 10:59:44;;;;;;;3.00;2.53;;;6.80;1.00;;;;;;5072167;28;20442;-84
2021/03/17 11:02:38;;;;;;;1.30;1.20;;;6.90;1.00;;;;;;5069666;28;20929;-78
2021/03/17 11:05:03;;;;;;;1.50;0.93;;;;;;;;;;5071589;28;20425;-77
2021/03/17 11:07:57;;;;;;;1.27;1.00;;;7.00;1.00;;;;;;5075573;28;20446;-75
2021/03/17 11:10:32;;;;;;;0.80;0.80;;;7.30;1.00;;;;;;5052900;28;20417;-75
2021/03/17 11:13:18;;;;;;;0.80;0.80;;;7.70;1.00;;;;;;5052339;28;20437;-75
2021/03/17 11:15:46;;;;;;;2.80;1.00;;;7.90;1.00;;;;;;5050039;28;20995;-79
2021/03/17 11:18:22;;;;;;;1.03;0.80;;;8.00;1.00;;;;;;5052602;28;20398;-79
2021/03/17 11:20:50;;;;;;;1.50;0.80;;;8.20;1.00;;;;;;5052185;28;20425;-82
2021/03/17 11:23:20;;;;;;;4.07;1.00;;;7.80;1.00;;;;;;5051243;28;20963;-79
2021/03/17 11:25:53;;;;;;;1.27;0.70;;;7.70;1.00;;;;;;5052933;28;20403;-80
2021/03/17 11:28:21;;;;;;;1.10;0.70;;;7.30;1.00;;;;;;5054309;28;20423;-80
2021/03/17 11:30:48;;;;;;;0.60;0.60;;;;;;;;;;5044144;28;20426;-80
2021/03/17 11:33:18;;;;;;;0.80;0.50;;;7.00;1.00;;;;;;5032652;28;20430;-79
2021/03/17 11:35:45;;;;;;;1.30;0.80;;;7.00;1.00;;;;;;5041924;28;20429;-79
2021/03/17 11:38:11;;;;;;;3.77;1.10;;;7.10;1.00;;;;;;5048069;28;20447;-79
2021/03/17 11:40:38;;;;;;;0.63;0.63;;;;;;;;;;5052494;28;20410;-80
2021/03/17 11:43:06;;;;;;;2.00;0.60;;;7.10;1.00;;;;;;5051408;28;20430;-80
2021/03/17 11:45:32;;;;;;;0.80;0.60;;;;;;;;;;5049994;28;20596;-78
2021/03/17 11:47:58;;;;;;;1.33;0.57;;;;;;;;;;5070615;28;20424;-78
2021/03/17 11:50:24;;;;;;;0.57;0.57;;;;;;;;;;5074002;28;20389;-78
2021/03/17 11:52:50;;;;;;;6.00;1.17;;;;;;;;;;5073991;28;20378;-78
2021/03/17 11:55:21;;;;;;;1.10;0.80;;;7.70;1.00;;;;;;5073900;28;20437;-78
2021/03/17 11:57:47;;;;;;;3.80;0.60;;;;;;;;;;5074043;28;20459;-77
2021/03/17 12:00:13;;;;;;;0.80;0.80;;;8.10;1.00;;;;;;5074134;28;20425;-77
2021/03/17 12:02:39;;;;;;;1.83;0.90;;;8.30;1.00;;;;;;5073674;28;20424;-77
2021/03/17 12:05:06;;;;;;;7.87;1.30;;;8.40;1.00;;;;;;5073821;28;20884;-77
2021/03/17 12:07:32;;;;;;;3.03;1.00;;;8.80;1.00;;;;;;5074243;28;20238;-77
2021/03/17 12:09:58;;;;;;;3.23;1.10;;;;;;;;;;5072894;28;20389;-79
2021/03/17 12:12:24;;;;;;;3.13;1.00;;;;;;;;;;5070687;28;20650;-78
2021/03/17 12:14:53;;;;;;;2.30;0.97;;;9.70;1.00;;;;;;5071826;28;20459;-77
2021/03/17 12:17:19;;;;;;;1.67;0.80;;;9.80;1.00;;;;;;5073508;28;20409;-77
2021/03/17 12:19:45;;;;;;;2.10;0.93;;;9.90;1.00;;;;;;5068329;28;20743;-77
2021/03/17 12:22:11;;;;;;;0.70;0.70;;;;;;;;;;5052944;28;20160;-75
2021/03/17 12:24:36;;;;;;;1.03;0.83;;;10.20;1.00;;;;;;5053517;28;20155;-76
2021/03/17 12:27:02;;;;;;;4.20;0.90;;;;;;;;;;5061521;28;20759;-76
2021/03/17 12:29:29;;;;;;;0.90;0.90;;;10.70;1.00;;;;;;5073025;28;20159;-76
2021/03/17 12:31:54;;;;;;;5.47;1.17;;;10.70;1.00;;;;;;5072782;28;20447;-76
2021/03/17 12:34:20;;;;;;;4.60;1.30;;;;;;;;;;5072550;28;20853;-76
2021/03/17 12:36:46;;;;;;;1.87;1.00;;;10.40;1.00;;;;;;5078264;28;20167;-76
2021/03/17 12:39:12;;;;;;;0.87;0.87;;;;;;;;;;5093486;28;20598;-75
2021/03/17 12:41:38;;;;;;;3.87;1.37;;;;;;;;;;5074218;28;20167;-75
2021/03/17 12:44:05;;;;;;;3.60;1.70;;;10.10;1.00;;;;;;5068194;28;20918;-76
2021/03/17 12:46:30;;;;;;;1.33;1.23;;;10.30;1.00;;;;;;5073113;28;20402;-76
2021/03/17 12:48:56;;;;;;;2.10;1.20;;;;;;;;;;5072695;28;20373;-76
2021/03/17 12:51:22;;;;;;;6.10;1.30;;;;;;;;;;5072895;28;20164;-76
2021/03/17 12:53:48;;;;;;;1.90;1.20;;;10.70;1.00;;;;;;5073319;28;21018;-76
2021/03/17 12:56:17;;;;;;;1.83;1.47;;;10.90;1.00;;;;;;5073034;28;20395;-77
2021/03/17 12:58:43;;;;;;;2.50;1.40;;;10.60;1.00;;;;;;5073057;28;20159;-77
2021/03/17 13:01:09;;;;;;;1.30;1.17;;;;;;;;;;5072914;28;20929;-78
2021/03/17 13:03:35;;;;;;;1.30;1.00;;;;;;;;;;5071337;28;20646;-77
2021/03/17 13:06:01;;;;;;;1.00;0.90;;;;;;;;;;5072357;28;20398;-76
2021/03/17 13:08:28;;;;;;;1.23;1.10;;;9.40;1.00;;;;;;5073223;28;20473;-76
2021/03/17 13:10:54;;;;;;;1.00;1.00;;;9.40;1.00;;;;;;5072959;28;20401;-81
2021/03/17 13:13:20;;;;;;;1.03;0.93;;;9.50;1.00;;;;;;5072605;28;20451;-80
2021/03/17 13:15:46;;;;;;;0.90;0.90;;;9.20;1.00;;;;;;5072901;28;20603;-81
2021/03/17 13:18:12;;;;;;;1.83;1.20;;;;;;;;;;5072886;28;20398;-81
2021/03/17 13:20:38;;;;;;;2.00;1.20;;;;;;;;;;5072511;28;20249;-82
2021/03/17 13:23:04;;;;;;;2.40;1.20;;;8.70;1.00;;;;;;5091834;28;20403;-73
2021/03/17 13:25:29;;;;;;;7.50;1.10;;;8.50;1.00;;;;;;5092355;28;20486;-74
2021/03/17 13:27:57;;;;;;;1.00;1.00;;;;;;;;;;5059767;28;20273;-75
2021/03/17 13:30:23;;;;;;;2.30;0.90;;;8.10;1.00;;;;;;5068054;28;20171;-73
2021/03/17 13:32:49;;;;;;;0.73;0.73;;;;;;;;;;5058846;28;20513;-77
2021/03/17 13:35:16;;;;;;;2.00;1.20;;;8.30;1.00;;;;;;5072371;28;20494;-78
2021/03/17 13:38:17;;;;;;;1.30;1.20;;;8.30;1.00;;;;;;5061079;28;20472;-76
2021/03/17 13:40:54;;;;;;;1.83;0.80;;;8.40;1.00;;;;;;5074223;28;20411;-76